This is the latest recevied weather packets stored in our database for station/object KD9ZDW. If no packets are shown the sender has not sent any weather packets the latest 1 day(s).
| Time | Temp. | Humidity | Pressure | Rain* | Wind** | Luminosity | Snow |
|---|---|---|---|---|---|---|---|
| 1777998231 | 12.22° C | 66% | 1010.6 hPa | 0 mm | 0 m/s | 69 W/m² | - |
| 1777997928 | 11.67° C | 63% | 1010.4 hPa | 0 mm | 0 m/s | 57 W/m² | - |
| 1777997625 | 11.67° C | 68% | 1010.4 hPa | 0 mm | 0 m/s | 50 W/m² | - |
| 1777997322 | 12.22° C | 65% | 1010.5 hPa | 0 mm | 0.45 m/s, 300° | 43 W/m² | - |
| 1777997021 | 12.22° C | 64% | 1010.4 hPa | 0 mm | 0 m/s | 42 W/m² | - |
| 1777996717 | 12.22° C | 64% | 1010.4 hPa | 0 mm | 0.45 m/s, 311° | 66 W/m² | - |
| 1777996412 | 11.67° C | 66% | 1010.6 hPa | 0 mm | 0.45 m/s, 295° | 69 W/m² | - |
| 1777996110 | 12.22° C | 65% | 1010.7 hPa | 0 mm | 1.34 m/s, 4° | 61 W/m² | - |
| 1777995806 | 12.22° C | 69% | 1010.7 hPa | 0 mm | 0 m/s | 49 W/m² | - |
| 1777995503 | 12.22° C | 68% | 1010.5 hPa | 0 mm | 0.89 m/s, 271° | 78 W/m² | - |
| 1777995200 | 12.22° C | 68% | 1010.6 hPa | 0 mm | 0 m/s | 69 W/m² | - |
| 1777994897 | 12.22° C | 65% | 1010.6 hPa | 0 mm | 1.79 m/s, 12° | 69 W/m² | - |
| 1777994594 | 12.22° C | 66% | 1010.7 hPa | 0 mm | 1.34 m/s, 257° | 89 W/m² | - |
| 1777994294 | 12.78° C | 66% | 1010.7 hPa | 0 mm | 1.34 m/s, 278° | 90 W/m² | - |
| 1777993991 | 12.78° C | 67% | 1010.7 hPa | 0 mm | 0.45 m/s, 304° | 119 W/m² | - |
| 1777993687 | 12.78° C | 65% | 1010.5 hPa | 0 mm | 0.89 m/s, 340° | 136 W/m² | - |
| 1777993385 | 12.22° C | 65% | 1010.3 hPa | 0 mm | 1.34 m/s, 283° | 160 W/m² | - |
| 1777993079 | 12.22° C | 64% | 1010.6 hPa | 0 mm | 1.34 m/s, 351° | 93 W/m² | - |
| 1777992778 | 12.22° C | 65% | 1010.6 hPa | 0 mm | 1.34 m/s, 311° | 76 W/m² | - |
| 1777992475 | 12.22° C | 64% | 1010.5 hPa | 0 mm | 1.79 m/s, 324° | 76 W/m² | - |
| 1777992173 | 12.22° C | 63% | 1010.6 hPa | 0 mm | 1.34 m/s, 338° | 51 W/m² | - |
| 1777991870 | 12.22° C | 65% | 1010.5 hPa | 0 mm | 1.34 m/s, 304° | 68 W/m² | - |
| 1777991567 | 12.22° C | 67% | 1010.3 hPa | 0 mm | 0.89 m/s, 280° | 45 W/m² | - |
| 1777991264 | 12.22° C | 65% | 1010.1 hPa | 0 mm | 2.24 m/s, 333° | 54 W/m² | - |
| 1777990961 | 12.78° C | 66% | 1010.3 hPa | 0 mm | 2.68 m/s, 282° | 25 W/m² | - |
* Rain latest hour (hover to see other rain measurements)
** Current wind speed in m/s (hover to see current wind gust speed)